Time;durP1;ratioP1;P1;durP2;ratioP2;P2;SDS_P1;SDS_P2;PMS_P1;PMS_P2;Temp;Humidity;BMP_temperature;BMP_pressure;BME280_temperature;BME280_humidity;BME280_pressure;Samples;Min_cycle;Max_cycle;Signal;HPM_P1;HPM_P2
2022/06/21 00:00:54;;;;;;;9.37;4.33;;;;;;;;;;4971435;28;213910;-72
2022/06/21 00:03:22;;;;;;;4.93;4.00;;;;;;;;;;4988145;28;20250;-69
2022/06/21 00:05:49;;;;;;;6.97;3.87;;;;;;;;;;5004496;28;20322;-70
2022/06/21 00:08:17;;;;;;;5.83;4.47;;;;;;;;;;4972828;28;20237;-69
2022/06/21 00:10:44;;;;;;;6.77;4.57;;;;;;;;;;4968799;28;20227;-70
2022/06/21 00:13:14;;;;;;;6.63;4.00;;;;;;;;;;4943101;28;20711;-69
2022/06/21 00:15:41;;;;;;;5.40;4.13;;;;;;;;;;4981432;28;20224;-69
2022/06/21 00:18:12;;;;;;;6.13;4.17;;;;;;;;;;4951954;28;20232;-69
2022/06/21 00:20:38;;;;;;;6.40;4.40;;;;;;;;;;4981412;28;20235;-69
2022/06/21 00:23:06;;;;;;;7.27;4.23;;;;;;;;;;4984720;28;20236;-70
2022/06/21 00:25:32;;;;;;;9.20;4.80;;;;;;;;;;4984446;28;20603;-70
2022/06/21 00:27:59;;;;;;;5.83;3.93;;;;;;;;;;4984496;28;20238;-69
2022/06/21 00:30:27;;;;;;;6.80;3.70;;;;;;;;;;4969643;28;20249;-70
2022/06/21 00:32:54;;;;;;;5.47;3.70;;;;;;;;;;4975546;28;20582;-69
2022/06/21 00:35:21;;;;;;;5.67;3.10;;;;;;;;;;4981698;28;20255;-70
2022/06/21 00:37:48;;;;;;;4.47;3.80;;;;;;;;;;4986153;28;20249;-69
2022/06/21 00:40:17;;;;;;;4.77;3.30;;;;;;;;;;5004285;28;20254;-69
2022/06/21 00:42:44;;;;;;;6.23;2.90;;;;;;;;;;4974372;28;20595;-69
2022/06/21 00:45:12;;;;;;;5.53;2.43;;;;;;;;;;4986898;28;20253;-69
2022/06/21 00:47:43;;;;;;;2.57;1.70;;;;;;;;;;4987512;28;20253;-69
2022/06/21 00:50:15;;;;;;;1.57;1.20;;;;;;;;;;4988203;28;20239;-70
2022/06/21 00:52:47;;;;;;;3.23;1.73;;;;;;;;;;4989766;28;20226;-70
2022/06/21 00:55:18;;;;;;;3.87;1.83;;;;;;;;;;4992977;28;20687;-70
2022/06/21 00:57:54;;;;;;;4.50;1.97;;;;;;;;;;4989963;28;20228;-71
2022/06/21 01:00:23;;;;;;;6.43;1.97;;;;;;;;;;4989722;28;20302;-70
2022/06/21 01:02:50;;;;;;;4.63;1.83;;;;;;;;;;4974389;28;20243;-70
2022/06/21 01:05:17;;;;;;;4.30;2.03;;;;;;;;;;5003609;28;20311;-70
2022/06/21 01:07:44;;;;;;;2.93;2.07;;;;;;;;;;4999562;28;20395;-70
2022/06/21 01:10:12;;;;;;;5.27;2.03;;;;;;;;;;4981435;28;20626;-70
2022/06/21 01:12:43;;;;;;;3.87;1.80;;;;;;;;;;4995784;28;20231;-70
2022/06/21 01:15:30;;;;;;;3.90;1.90;;;;;;;;;;5001776;28;20243;-70
2022/06/21 01:18:01;;;;;;;4.10;1.90;;;;;;;;;;5002373;28;20253;-70
2022/06/21 01:20:28;;;;;;;2.70;1.63;;;;;;;;;;4969171;28;20232;-71
2022/06/21 01:23:06;;;;;;;1.93;1.37;;;;;;;;;;4988570;28;20258;-70
2022/06/21 01:25:42;;;;;;;3.73;1.70;;;;;;;;;;4990653;28;20342;-70
2022/06/21 01:28:09;;;;;;;3.00;1.80;;;;;;;;;;4988991;28;20242;-70
2022/06/21 01:30:35;;;;;;;1.70;1.60;;;;;;;;;;4985105;28;216084;-70
2022/06/21 01:33:02;;;;;;;3.57;1.70;;;;;;;;;;4991956;28;20721;-70
2022/06/21 01:35:42;;;;;;;3.07;1.80;;;;;;;;;;5004976;28;20254;-70
2022/06/21 01:38:11;;;;;;;1.80;1.30;;;;;;;;;;5004200;28;20228;-70
2022/06/21 01:40:42;;;;;;;2.70;1.10;;;;;;;;;;4985782;28;20239;-71
2022/06/21 01:43:10;;;;;;;2.57;1.40;;;;;;;;;;4979422;28;20702;-70
2022/06/21 01:45:41;;;;;;;1.93;1.10;;;;;;;;;;5003286;28;20226;-70
2022/06/21 01:48:27;;;;;;;4.40;1.80;;;;;;;;;;4983873;28;20250;-71
2022/06/21 01:50:56;;;;;;;2.20;1.13;;;;;;;;;;4981158;28;20245;-69
2022/06/21 01:53:23;;;;;;;4.70;1.30;;;;;;;;;;4986336;28;20742;-70
2022/06/21 01:55:51;;;;;;;1.97;1.23;;;;;;;;;;4969921;28;20309;-70
2022/06/21 01:58:18;;;;;;;1.03;0.93;;;;;;;;;;4951708;28;219997;-70
2022/06/21 02:01:12;;;;;;;4.50;1.10;;;;;;;;;;4964220;28;20234;-70
2022/06/21 02:03:39;;;;;;;3.90;1.10;;;;;;;;;;4981502;28;20228;-69
2022/06/21 02:06:07;;;;;;;3.03;1.40;;;;;;;;;;4982168;28;20247;-70
2022/06/21 02:08:37;;;;;;;4.13;1.10;;;;;;;;;;4965367;28;20322;-70
2022/06/21 02:11:22;;;;;;;4.33;1.50;;;;;;;;;;4982361;28;20235;-71
2022/06/21 02:14:28;;;;;;;3.53;1.27;;;;;;;;;;4983875;28;20305;-71
2022/06/21 02:16:38;;;;;;;2.20;0.83;;;;;;;;;;4973774;28;227118;-70
2022/06/21 02:19:05;;;;;;;2.03;1.03;;;;;;;;;;4986398;28;20263;-70
2022/06/21 02:21:33;;;;;;;3.37;1.00;;;;;;;;;;4944171;28;20219;-70
2022/06/21 02:24:00;;;;;;;1.77;1.10;;;;;;;;;;4993341;28;20223;-71
2022/06/21 02:26:28;;;;;;;2.63;1.00;;;;;;;;;;4976173;28;22466;-70
2022/06/21 02:28:55;;;;;;;1.53;0.80;;;;;;;;;;4991217;28;20240;-71
2022/06/21 02:31:22;;;;;;;5.43;1.00;;;;;;;;;;4998641;28;20227;-70
2022/06/21 02:33:49;;;;;;;1.53;1.00;;;;;;;;;;4984802;28;20232;-70
2022/06/21 02:36:17;;;;;;;1.83;1.00;;;;;;;;;;4998744;28;20286;-70
2022/06/21 02:38:45;;;;;;;1.20;0.90;;;;;;;;;;4981222;28;20576;-70
2022/06/21 02:41:13;;;;;;;3.80;1.00;;;;;;;;;;4997209;28;20244;-71
2022/06/21 02:43:41;;;;;;;3.20;1.13;;;;;;;;;;4991160;28;20772;-69
2022/06/21 02:46:12;;;;;;;1.90;1.20;;;;;;;;;;4980809;28;221441;-69
2022/06/21 02:48:59;;;;;;;3.83;0.90;;;;;;;;;;4987355;28;20220;-69
2022/06/21 02:51:31;;;;;;;2.37;1.20;;;;;;;;;;4984409;28;218499;-69
2022/06/21 02:54:00;;;;;;;3.33;1.23;;;;;;;;;;4991164;28;20595;-69
2022/06/21 02:56:56;;;;;;;2.23;1.00;;;;;;;;;;4987493;28;20671;-69
2022/06/21 02:59:23;;;;;;;2.07;1.20;;;;;;;;;;4985200;28;20227;-70
2022/06/21 03:01:50;;;;;;;2.10;1.40;;;;;;;;;;4984876;28;20691;-70
2022/06/21 03:04:26;;;;;;;2.37;1.23;;;;;;;;;;5001308;28;20236;-70
2022/06/21 03:06:53;;;;;;;2.50;1.30;;;;;;;;;;4961528;28;216922;-70
2022/06/21 03:09:20;;;;;;;3.90;1.13;;;;;;;;;;4990179;28;20219;-70
2022/06/21 03:11:51;;;;;;;4.00;1.70;;;;;;;;;;4970551;28;37838;-70
2022/06/21 03:14:20;;;;;;;3.90;2.77;;;;;;;;;;4970392;28;20231;-69
2022/06/21 03:16:47;;;;;;;4.57;3.33;;;;;;;;;;4982822;28;20232;-69
2022/06/21 03:19:20;;;;;;;4.23;2.70;;;;;;;;;;4987419;28;20223;-69
2022/06/21 03:21:47;;;;;;;4.73;2.17;;;;;;;;;;4984675;28;20599;-69
2022/06/21 03:24:15;;;;;;;4.53;1.87;;;;;;;;;;4987902;28;20650;-71
2022/06/21 03:26:42;;;;;;;1.80;1.20;;;;;;;;;;4986537;28;20224;-70
2022/06/21 03:29:08;;;;;;;3.87;1.70;;;;;;;;;;4997922;28;20691;-70
2022/06/21 03:31:36;;;;;;;1.50;1.40;;;;;;;;;;4988218;28;20302;-69
2022/06/21 03:34:09;;;;;;;2.50;1.20;;;;;;;;;;5000023;28;20314;-70
2022/06/21 03:36:36;;;;;;;4.47;1.30;;;;;;;;;;5000457;28;20238;-69
2022/06/21 03:39:08;;;;;;;4.70;1.53;;;;;;;;;;5001707;28;20239;-69
2022/06/21 03:41:44;;;;;;;2.87;1.40;;;;;;;;;;5000753;28;20595;-70
2022/06/21 03:44:14;;;;;;;2.10;1.37;;;;;;;;;;4999153;28;20249;-70
2022/06/21 03:47:00;;;;;;;3.77;1.30;;;;;;;;;;4984794;28;20599;-70
2022/06/21 03:49:28;;;;;;;2.53;1.70;;;;;;;;;;4987035;28;20282;-70
2022/06/21 03:51:55;;;;;;;2.13;1.40;;;;;;;;;;4964440;28;214351;-70
2022/06/21 03:54:28;;;;;;;2.97;1.40;;;;;;;;;;4984445;28;20251;-73
2022/06/21 03:57:02;;;;;;;4.00;1.60;;;;;;;;;;4985209;28;35310;-70
2022/06/21 03:59:28;;;;;;;2.03;1.70;;;;;;;;;;4983400;28;20236;-70
2022/06/21 04:02:00;;;;;;;2.70;1.70;;;;;;;;;;4988933;28;20224;-70
2022/06/21 04:04:27;;;;;;;2.13;1.70;;;;;;;;;;4970016;28;20239;-71
2022/06/21 04:06:55;;;;;;;3.20;2.00;;;;;;;;;;4988838;28;20228;-70
2022/06/21 04:09:42;;;;;;;3.90;2.00;;;;;;;;;;4971119;28;20239;-70
2022/06/21 04:12:11;;;;;;;3.43;2.37;;;;;;;;;;4986053;28;20231;-70
2022/06/21 04:14:40;;;;;;;3.17;1.90;;;;;;;;;;4984811;28;20229;-72
2022/06/21 04:17:09;;;;;;;3.07;2.53;;;;;;;;;;4986268;28;20236;-70
2022/06/21 04:19:38;;;;;;;5.00;2.60;;;;;;;;;;4986207;28;21713;-71
2022/06/21 04:22:07;;;;;;;3.20;2.30;;;;;;;;;;5000118;28;20271;-70
2022/06/21 04:24:47;;;;;;;4.77;2.70;;;;;;;;;;4999135;28;20243;-69
2022/06/21 04:27:23;;;;;;;4.20;2.63;;;;;;;;;;4983998;28;20223;-69
2022/06/21 04:30:25;;;;;;;2.53;2.07;;;;;;;;;;4984982;28;20224;-70
2022/06/21 04:32:54;;;;;;;2.13;1.80;;;;;;;;;;4954099;28;20293;-71
2022/06/21 04:35:44;;;;;;;3.63;1.80;;;;;;;;;;4987171;28;20268;-69
2022/06/21 04:38:16;;;;;;;5.53;1.87;;;;;;;;;;4999461;28;20327;-69
2022/06/21 04:40:47;;;;;;;4.60;2.10;;;;;;;;;;4970970;28;21165;-70
2022/06/21 04:43:22;;;;;;;5.57;1.80;;;;;;;;;;4962006;28;20239;-72
2022/06/21 04:46:30;;;;;;;3.17;1.60;;;;;;;;;;4982749;28;20307;-70
2022/06/21 04:49:04;;;;;;;3.10;1.40;;;;;;;;;;4955538;28;20228;-70
2022/06/21 04:51:35;;;;;;;3.13;1.63;;;;;;;;;;4992331;28;20227;-69
2022/06/21 04:54:04;;;;;;;2.30;1.40;;;;;;;;;;4980236;28;24266;-70
2022/06/21 04:56:31;;;;;;;3.37;1.47;;;;;;;;;;4981613;28;219040;-69
2022/06/21 04:58:57;;;;;;;2.50;1.20;;;;;;;;;;4991996;28;20227;-69
2022/06/21 05:01:30;;;;;;;4.30;1.30;;;;;;;;;;4997235;28;20227;-69
2022/06/21 05:03:57;;;;;;;3.07;1.67;;;;;;;;;;4997243;28;20228;-69
2022/06/21 05:06:25;;;;;;;3.70;1.43;;;;;;;;;;4984800;28;20238;-70
2022/06/21 05:08:51;;;;;;;4.07;1.20;;;;;;;;;;5002013;28;20277;-70
2022/06/21 05:11:18;;;;;;;1.50;0.90;;;;;;;;;;4983848;28;20718;-70
2022/06/21 05:13:48;;;;;;;1.40;0.80;;;;;;;;;;4975192;28;219812;-69
2022/06/21 05:16:18;;;;;;;2.10;1.07;;;;;;;;;;4970653;28;20350;-69
2022/06/21 05:18:47;;;;;;;3.17;1.20;;;;;;;;;;4978575;28;20239;-70
2022/06/21 05:21:15;;;;;;;4.63;1.40;;;;;;;;;;4957884;28;20317;-69
2022/06/21 05:23:41;;;;;;;4.03;1.40;;;;;;;;;;4994694;28;20238;-70
2022/06/21 05:26:17;;;;;;;2.43;1.03;;;;;;;;;;4967128;28;20308;-70
2022/06/21 05:28:45;;;;;;;2.80;0.90;;;;;;;;;;4967750;28;20790;-70
2022/06/21 05:31:14;;;;;;;1.63;0.87;;;;;;;;;;4950676;28;20244;-69
2022/06/21 05:33:44;;;;;;;1.90;0.80;;;;;;;;;;4994989;28;20224;-69
2022/06/21 05:36:12;;;;;;;3.40;0.80;;;;;;;;;;4979545;28;25610;-70
2022/06/21 05:38:52;;;;;;;2.40;0.90;;;;;;;;;;4983772;28;30123;-69
2022/06/21 05:41:31;;;;;;;4.70;1.20;;;;;;;;;;4975917;28;20259;-70
2022/06/21 05:44:02;;;;;;;2.40;1.07;;;;;;;;;;4959151;28;20322;-71
2022/06/21 05:46:30;;;;;;;1.93;1.23;;;;;;;;;;4970984;28;41630;-70
2022/06/21 05:48:57;;;;;;;3.87;0.80;;;;;;;;;;4966788;28;20246;-70
2022/06/21 05:51:25;;;;;;;1.07;0.70;;;;;;;;;;4986198;28;20779;-69
2022/06/21 05:53:55;;;;;;;1.67;1.00;;;;;;;;;;4979590;28;20230;-71
2022/06/21 05:56:23;;;;;;;2.30;0.90;;;;;;;;;;4992778;28;20230;-70
2022/06/21 05:58:53;;;;;;;4.47;0.83;;;;;;;;;;4993245;28;20223;-69
2022/06/21 06:01:26;;;;;;;3.20;0.70;;;;;;;;;;4985077;28;20673;-70
2022/06/21 06:04:09;;;;;;;1.57;0.80;;;;;;;;;;4971500;28;20255;-70
2022/06/21 06:06:39;;;;;;;2.20;0.70;;;;;;;;;;4972779;28;20224;-69
2022/06/21 06:09:25;;;;;;;1.57;0.70;;;;;;;;;;4971112;28;20236;-69
2022/06/21 06:12:23;;;;;;;1.73;0.70;;;;;;;;;;4932974;28;20230;-69
2022/06/21 06:14:55;;;;;;;2.70;0.90;;;;;;;;;;4982347;28;224627;-70
2022/06/21 06:17:34;;;;;;;2.67;0.63;;;;;;;;;;4984515;28;20230;-69
2022/06/21 06:20:20;;;;;;;2.40;0.80;;;;;;;;;;4981538;28;221327;-70
2022/06/21 06:23:10;;;;;;;1.60;0.60;;;;;;;;;;4987211;28;20227;-69
2022/06/21 06:25:36;;;;;;;3.03;0.60;;;;;;;;;;4959253;28;20239;-70
2022/06/21 06:28:09;;;;;;;2.10;0.73;;;;;;;;;;4978784;28;20560;-69
2022/06/21 06:30:51;;;;;;;2.97;0.70;;;;;;;;;;4957619;28;21074;-69
2022/06/21 06:33:24;;;;;;;0.93;0.60;;;;;;;;;;4978982;28;20259;-69
2022/06/21 06:35:52;;;;;;;1.70;0.50;;;;;;;;;;4980405;28;230352;-69
2022/06/21 06:38:18;;;;;;;2.93;0.70;;;;;;;;;;4981711;28;26232;-69
2022/06/21 06:41:03;;;;;;;2.90;0.80;;;;;;;;;;4983193;28;20724;-70
2022/06/21 06:43:50;;;;;;;3.23;0.80;;;;;;;;;;5000957;28;20250;-69
2022/06/21 06:46:26;;;;;;;1.83;0.80;;;;;;;;;;4972313;28;20703;-69
2022/06/21 06:48:55;;;;;;;1.77;0.70;;;;;;;;;;4985991;28;20315;-69
2022/06/21 06:51:31;;;;;;;1.83;0.70;;;;;;;;;;4983719;28;20244;-69
2022/06/21 06:54:18;;;;;;;2.97;0.73;;;;;;;;;;4999482;28;20975;-72
2022/06/21 06:56:48;;;;;;;1.87;0.60;;;;;;;;;;4979459;28;219809;-70
2022/06/21 06:59:15;;;;;;;3.87;0.60;;;;;;;;;;4987354;28;20571;-70
2022/06/21 07:01:43;;;;;;;3.13;0.90;;;;;;;;;;4973637;28;217513;-70
2022/06/21 07:04:11;;;;;;;2.13;0.77;;;;;;;;;;4981317;28;20762;-70
2022/06/21 07:06:41;;;;;;;2.67;0.90;;;;;;;;;;5000393;28;20239;-69
2022/06/21 07:09:17;;;;;;;2.93;0.87;;;;;;;;;;4985588;28;20232;-70
2022/06/21 07:11:51;;;;;;;1.63;0.63;;;;;;;;;;4976659;28;217088;-69
2022/06/21 07:14:18;;;;;;;2.83;0.90;;;;;;;;;;4983271;28;20274;-70
2022/06/21 07:16:45;;;;;;;2.23;0.83;;;;;;;;;;4986183;28;20224;-70
2022/06/21 07:19:12;;;;;;;4.37;1.83;;;;;;;;;;4999875;28;20639;-69
2022/06/21 07:21:39;;;;;;;1.30;0.83;;;;;;;;;;5000393;28;20223;-69
2022/06/21 07:24:08;;;;;;;2.47;1.10;;;;;;;;;;4977416;28;20277;-70
2022/06/21 07:26:55;;;;;;;2.47;1.00;;;;;;;;;;4999598;28;21431;-70
2022/06/21 07:29:26;;;;;;;5.90;1.40;;;;;;;;;;4985139;28;20246;-70
2022/06/21 07:31:53;;;;;;;3.60;1.40;;;;;;;;;;4998858;28;20318;-71
2022/06/21 07:34:23;;;;;;;3.97;1.10;;;;;;;;;;4985918;28;20314;-70
2022/06/21 07:36:51;;;;;;;2.23;1.30;;;;;;;;;;4989163;28;20314;-69
2022/06/21 07:39:23;;;;;;;3.63;1.00;;;;;;;;;;4984608;28;20240;-70
2022/06/21 07:42:00;;;;;;;5.03;2.40;;;;;;;;;;4999598;28;20294;-70
2022/06/21 07:44:45;;;;;;;4.43;1.50;;;;;;;;;;4970773;28;20242;-70
2022/06/21 07:47:36;;;;;;;4.27;1.60;;;;;;;;;;4984767;28;20315;-70
2022/06/21 07:50:05;;;;;;;4.07;1.93;;;;;;;;;;4998958;28;20230;-70
2022/06/21 07:52:54;;;;;;;3.73;2.17;;;;;;;;;;4993639;28;221113;-71
2022/06/21 07:55:24;;;;;;;6.07;4.17;;;;;;;;;;4985907;28;20239;-71
2022/06/21 07:57:52;;;;;;;7.00;4.73;;;;;;;;;;4999261;28;20220;-71
2022/06/21 08:00:20;;;;;;;3.93;1.20;;;;;;;;;;4986298;28;20223;-72
2022/06/21 08:08:27;;;;;;;1.97;0.87;;;;;;;;;;4976189;28;20295;-71
2022/06/21 08:10:55;;;;;;;5.10;1.20;;;;;;;;;;4985849;28;20247;-69
2022/06/21 08:13:27;;;;;;;2.83;1.17;;;;;;;;;;4999544;28;20628;-70
2022/06/21 08:16:04;;;;;;;6.90;1.93;;;;;;;;;;4966540;28;20224;-70
2022/06/21 08:18:36;;;;;;;5.07;1.93;;;;;;;;;;4983660;28;20247;-70
2022/06/21 08:21:05;;;;;;;9.80;4.60;;;;;;;;;;4983378;28;20234;-70
2022/06/21 08:23:52;;;;;;;10.27;4.73;;;;;;;;;;4999324;28;20634;-69
2022/06/21 08:26:28;;;;;;;6.37;3.03;;;;;;;;;;4984842;28;20243;-71
2022/06/21 08:28:57;;;;;;;6.97;3.70;;;;;;;;;;4982491;28;20246;-70
2022/06/21 08:31:34;;;;;;;16.63;8.77;;;;;;;;;;4977926;28;216177;-70
2022/06/21 08:34:04;;;;;;;6.17;3.83;;;;;;;;;;4983215;28;20220;-70
2022/06/21 08:36:32;;;;;;;3.13;1.00;;;;;;;;;;4999202;28;20711;-70
2022/06/21 08:39:18;;;;;;;3.60;1.10;;;;;;;;;;4983076;28;20243;-70
2022/06/21 08:42:02;;;;;;;2.93;0.97;;;;;;;;;;4964032;28;20233;-71
2022/06/21 08:44:28;;;;;;;3.40;0.97;;;;;;;;;;4949545;28;20273;-70
2022/06/21 08:47:10;;;;;;;1.90;0.80;;;;;;;;;;4971611;28;20323;-72
2022/06/21 08:49:40;;;;;;;1.57;0.70;;;;;;;;;;4973310;28;20714;-71
2022/06/21 08:52:28;;;;;;;3.87;1.10;;;;;;;;;;4964189;28;20233;-73
2022/06/21 08:55:04;;;;;;;1.70;0.80;;;;;;;;;;4962979;28;20243;-70
2022/06/21 08:57:49;;;;;;;1.17;1.00;;;;;;;;;;4966531;28;20465;-70
2022/06/21 09:00:22;;;;;;;1.93;0.80;;;;;;;;;;4957823;28;20259;-71
2022/06/21 09:02:56;;;;;;;3.50;0.93;;;;;;;;;;4960037;28;232840;-70
2022/06/21 09:05:42;;;;;;;3.33;0.90;;;;;;;;;;4967368;28;20220;-69
2022/06/21 09:08:09;;;;;;;3.00;1.07;;;;;;;;;;4969346;28;20615;-70
2022/06/21 09:10:51;;;;;;;2.33;0.97;;;;;;;;;;4967758;28;20763;-71
2022/06/21 09:13:36;;;;;;;4.37;1.30;;;;;;;;;;4967479;28;20236;-71
2022/06/21 09:16:09;;;;;;;3.23;0.87;;;;;;;;;;4965830;28;20565;-68
2022/06/21 09:18:45;;;;;;;3.03;1.03;;;;;;;;;;4941273;28;20311;-69
2022/06/21 09:21:18;;;;;;;3.37;0.90;;;;;;;;;;4969541;28;20227;-68
2022/06/21 09:24:04;;;;;;;2.37;1.20;;;;;;;;;;4945198;28;215040;-70
2022/06/21 09:26:33;;;;;;;2.47;1.10;;;;;;;;;;4964839;28;20753;-69
2022/06/21 09:29:05;;;;;;;4.80;1.00;;;;;;;;;;4966003;28;20730;-69
2022/06/21 09:31:41;;;;;;;3.13;1.10;;;;;;;;;;4945817;28;20303;-69
2022/06/21 09:34:32;;;;;;;1.70;0.90;;;;;;;;;;4965029;28;20534;-69
2022/06/21 09:37:19;;;;;;;2.53;1.00;;;;;;;;;;4963587;28;20236;-69
2022/06/21 09:39:51;;;;;;;2.77;0.90;;;;;;;;;;4944818;28;20220;-69
2022/06/21 09:42:21;;;;;;;4.20;1.10;;;;;;;;;;4951693;28;20689;-69
2022/06/21 09:44:51;;;;;;;5.30;0.97;;;;;;;;;;4943799;28;20688;-69
2022/06/21 09:47:24;;;;;;;3.63;1.10;;;;;;;;;;4951613;28;20249;-71
2022/06/21 09:49:55;;;;;;;4.63;1.03;;;;;;;;;;4957808;28;22230;-69
2022/06/21 09:52:40;;;;;;;4.80;1.07;;;;;;;;;;4952527;28;20236;-69
2022/06/21 09:55:27;;;;;;;3.30;1.13;;;;;;;;;;4953880;28;20323;-69
2022/06/21 09:58:13;;;;;;;5.23;1.20;;;;;;;;;;4972741;28;20238;-69
2022/06/21 10:00:41;;;;;;;1.77;0.93;;;;;;;;;;4967547;28;20236;-69
2022/06/21 10:03:22;;;;;;;2.70;1.20;;;;;;;;;;4947744;28;20608;-72
2022/06/21 10:05:49;;;;;;;2.83;0.90;;;;;;;;;;4955557;28;20228;-68
2022/06/21 10:08:19;;;;;;;3.43;1.00;;;;;;;;;;4957398;28;20228;-68
2022/06/21 10:10:57;;;;;;;3.27;0.90;;;;;;;;;;4969049;28;20791;-68
2022/06/21 10:13:44;;;;;;;2.03;0.90;;;;;;;;;;4961381;28;20595;-69
2022/06/21 10:16:12;;;;;;;2.37;1.00;;;;;;;;;;4971948;28;22758;-69
2022/06/21 10:18:39;;;;;;;3.93;1.30;;;;;;;;;;4969363;28;20239;-68
2022/06/21 10:21:11;;;;;;;4.20;0.90;;;;;;;;;;4969693;28;34612;-69
2022/06/21 10:23:56;;;;;;;3.03;0.93;;;;;;;;;;4967498;28;20232;-69
2022/06/21 10:26:31;;;;;;;1.80;0.90;;;;;;;;;;4962768;28;20358;-68
2022/06/21 10:29:17;;;;;;;3.27;0.90;;;;;;;;;;4952442;28;20221;-69
2022/06/21 10:32:03;;;;;;;2.10;0.80;;;;;;;;;;4952096;28;20233;-69
2022/06/21 10:34:49;;;;;;;3.47;0.90;;;;;;;;;;4947924;28;20236;-69
2022/06/21 10:37:18;;;;;;;2.03;0.90;;;;;;;;;;4959645;28;20700;-68
2022/06/21 10:39:50;;;;;;;1.87;0.70;;;;;;;;;;4962556;28;20228;-69
2022/06/21 10:42:47;;;;;;;2.13;0.80;;;;;;;;;;4935504;28;20324;-69
2022/06/21 10:45:46;;;;;;;1.43;0.83;;;;;;;;;;4932717;28;32116;-69
2022/06/21 10:48:28;;;;;;;3.27;1.00;;;;;;;;;;4920047;28;20592;-69
2022/06/21 10:51:24;;;;;;;1.53;0.70;;;;;;;;;;4971816;28;20217;-69
2022/06/21 10:54:20;;;;;;;2.47;1.10;;;;;;;;;;4957267;28;20233;-68
2022/06/21 11:02:59;;;;;;;3.03;0.90;;;;;;;;;;4973320;28;20234;-69
2022/06/21 11:05:29;;;;;;;2.80;0.70;;;;;;;;;;4979095;28;20818;-69
2022/06/21 11:08:05;;;;;;;4.10;0.97;;;;;;;;;;4979960;28;20228;-69
2022/06/21 11:10:36;;;;;;;1.40;0.83;;;;;;;;;;4953926;28;218768;-70
2022/06/21 11:13:06;;;;;;;0.83;0.70;;;;;;;;;;4965760;28;20238;-69
2022/06/21 11:15:36;;;;;;;2.13;0.77;;;;;;;;;;4981502;28;20263;-69
2022/06/21 11:18:07;;;;;;;1.13;0.77;;;;;;;;;;4966206;28;20239;-69
2022/06/21 11:20:49;;;;;;;2.20;0.80;;;;;;;;;;4949341;28;20387;-69
2022/06/21 11:23:34;;;;;;;2.60;0.77;;;;;;;;;;4960220;28;20271;-69
2022/06/21 11:26:21;;;;;;;3.03;0.70;;;;;;;;;;4970629;28;20228;-68
2022/06/21 11:29:16;;;;;;;1.10;0.80;;;;;;;;;;4973863;28;20219;-70
2022/06/21 11:31:52;;;;;;;2.07;0.67;;;;;;;;;;4950224;28;20707;-70
2022/06/21 11:34:36;;;;;;;2.23;0.90;;;;;;;;;;4950847;28;20255;-70
2022/06/21 11:37:06;;;;;;;1.73;0.80;;;;;;;;;;4963430;28;20247;-70
2022/06/21 11:39:33;;;;;;;5.83;0.70;;;;;;;;;;4973457;28;20236;-69
2022/06/21 11:42:10;;;;;;;4.13;0.70;;;;;;;;;;4964192;28;20300;-69
2022/06/21 11:44:37;;;;;;;1.57;0.70;;;;;;;;;;4961739;28;20223;-70
2022/06/21 11:47:06;;;;;;;3.03;0.60;;;;;;;;;;4970570;28;20235;-71
2022/06/21 11:49:33;;;;;;;1.07;0.50;;;;;;;;;;4949038;28;21032;-70
2022/06/21 11:52:19;;;;;;;1.43;0.67;;;;;;;;;;4969244;28;20223;-70
2022/06/21 11:54:47;;;;;;;3.13;0.70;;;;;;;;;;4953621;28;20323;-70
2022/06/21 11:57:18;;;;;;;6.23;0.70;;;;;;;;;;4949416;28;20244;-72
2022/06/21 11:59:54;;;;;;;4.43;0.60;;;;;;;;;;4951810;28;20285;-71
2022/06/21 12:02:24;;;;;;;4.20;0.83;;;;;;;;;;4953131;28;20224;-70
2022/06/21 12:04:57;;;;;;;1.30;0.60;;;;;;;;;;4949050;28;24994;-70
2022/06/21 12:07:46;;;;;;;2.47;0.50;;;;;;;;;;4934596;28;20224;-69
2022/06/21 12:10:26;;;;;;;3.17;0.50;;;;;;;;;;4949200;28;20317;-70
2022/06/21 12:13:04;;;;;;;1.00;0.50;;;;;;;;;;4956581;28;21019;-69
2022/06/21 12:15:55;;;;;;;2.43;0.60;;;;;;;;;;4944060;28;20865;-69
2022/06/21 12:18:40;;;;;;;1.83;0.60;;;;;;;;;;4957565;28;20228;-67
2022/06/21 12:21:09;;;;;;;1.50;0.60;;;;;;;;;;4944058;28;20258;-68
2022/06/21 12:23:36;;;;;;;1.80;0.60;;;;;;;;;;4931484;28;20700;-70
2022/06/21 12:26:06;;;;;;;1.10;0.40;;;;;;;;;;4913769;28;20229;-71
2022/06/21 12:28:33;;;;;;;2.17;0.67;;;;;;;;;;4937451;28;20233;-68
2022/06/21 12:31:03;;;;;;;2.57;1.00;;;;;;;;;;4943563;28;20221;-68
2022/06/21 12:33:33;;;;;;;2.50;0.60;;;;;;;;;;4945049;28;20252;-68
2022/06/21 12:36:00;;;;;;;1.93;0.63;;;;;;;;;;4943370;28;20248;-69
2022/06/21 12:38:32;;;;;;;1.53;0.70;;;;;;;;;;4950905;28;20217;-68
2022/06/21 12:41:02;;;;;;;1.70;0.67;;;;;;;;;;4928936;28;20257;-68
2022/06/21 12:43:41;;;;;;;1.07;0.60;;;;;;;;;;4950867;28;20247;-68
2022/06/21 12:46:30;;;;;;;1.57;0.50;;;;;;;;;;4953530;28;20313;-69
2022/06/21 12:48:57;;;;;;;0.73;0.43;;;;;;;;;;4929804;28;20240;-69
2022/06/21 12:51:37;;;;;;;3.27;0.90;;;;;;;;;;4944563;28;20229;-69
2022/06/21 12:54:40;;;;;;;2.17;0.73;;;;;;;;;;4941410;28;20253;-68
2022/06/21 12:57:16;;;;;;;1.80;0.50;;;;;;;;;;4946890;28;20228;-69
2022/06/21 12:59:43;;;;;;;1.63;0.80;;;;;;;;;;4949072;28;20231;-70
2022/06/21 13:02:19;;;;;;;0.70;0.63;;;;;;;;;;4965415;28;20224;-68
2022/06/21 13:05:05;;;;;;;1.00;0.70;;;;;;;;;;4962499;28;20240;-69
2022/06/21 13:07:50;;;;;;;2.37;0.80;;;;;;;;;;4964648;28;20228;-69
2022/06/21 13:10:36;;;;;;;1.97;0.70;;;;;;;;;;4962167;28;20231;-69
2022/06/21 13:13:29;;;;;;;6.63;3.17;;;;;;;;;;4964079;28;20220;-69
2022/06/21 13:16:32;;;;;;;4.93;0.60;;;;;;;;;;4920359;28;20720;-71
2022/06/21 13:19:12;;;;;;;0.97;0.50;;;;;;;;;;4949557;28;20228;-71
2022/06/21 13:21:44;;;;;;;1.20;0.60;;;;;;;;;;4963471;28;20224;-71
2022/06/21 13:24:14;;;;;;;1.07;0.70;;;;;;;;;;4961646;28;20250;-71
2022/06/21 13:27:13;;;;;;;2.13;0.67;;;;;;;;;;4963966;28;20259;-71
2022/06/21 13:29:47;;;;;;;1.07;0.50;;;;;;;;;;4962010;28;20244;-72
2022/06/21 13:32:30;;;;;;;0.90;0.60;;;;;;;;;;4946184;28;20228;-71
2022/06/21 13:34:59;;;;;;;2.27;0.80;;;;;;;;;;4963527;28;20216;-71
2022/06/21 13:37:44;;;;;;;1.93;0.70;;;;;;;;;;4930311;28;20229;-71
2022/06/21 13:40:17;;;;;;;1.10;0.53;;;;;;;;;;4956986;28;20247;-72
2022/06/21 13:42:55;;;;;;;0.70;0.50;;;;;;;;;;4947773;28;20712;-71
2022/06/21 13:45:28;;;;;;;1.83;0.50;;;;;;;;;;4945969;28;20236;-71
2022/06/21 13:48:34;;;;;;;0.50;0.50;;;;;;;;;;4964032;28;20236;-71
2022/06/21 13:51:04;;;;;;;0.77;0.50;;;;;;;;;;4945269;28;20307;-71
2022/06/21 13:53:34;;;;;;;2.50;0.70;;;;;;;;;;4956229;28;20319;-70
2022/06/21 13:56:16;;;;;;;1.27;0.70;;;;;;;;;;4966013;28;20807;-70
2022/06/21 13:59:03;;;;;;;4.20;2.13;;;;;;;;;;4971704;28;20226;-70
2022/06/21 14:01:31;;;;;;;4.67;0.87;;;;;;;;;;4946515;28;20687;-71
2022/06/21 14:04:07;;;;;;;0.63;0.50;;;;;;;;;;4968498;28;20227;-71
2022/06/21 14:06:37;;;;;;;0.83;0.57;;;;;;;;;;4954743;28;215531;-71
2022/06/21 14:09:24;;;;;;;2.53;0.60;;;;;;;;;;4967098;28;20228;-71
2022/06/21 14:11:52;;;;;;;1.67;0.67;;;;;;;;;;4965404;28;20323;-71
2022/06/21 14:14:25;;;;;;;2.73;0.80;;;;;;;;;;4961817;28;21143;-72
2022/06/21 14:16:53;;;;;;;2.63;0.80;;;;;;;;;;4960162;28;20307;-72
2022/06/21 14:19:21;;;;;;;3.23;0.70;;;;;;;;;;4946907;28;20267;-71
2022/06/21 14:21:52;;;;;;;2.20;0.60;;;;;;;;;;4967392;28;20573;-71
2022/06/21 14:24:21;;;;;;;3.17;0.80;;;;;;;;;;4961268;28;20251;-71
2022/06/21 14:26:53;;;;;;;2.63;0.70;;;;;;;;;;4959076;28;20232;-72
2022/06/21 14:29:32;;;;;;;0.83;0.70;;;;;;;;;;4965909;28;20239;-71
2022/06/21 14:32:19;;;;;;;0.73;0.60;;;;;;;;;;4961854;28;20605;-71
2022/06/21 14:34:52;;;;;;;1.00;0.80;;;;;;;;;;4960835;28;20291;-72
2022/06/21 14:37:38;;;;;;;2.27;1.13;;;;;;;;;;4958656;28;20251;-72
2022/06/21 14:40:30;;;;;;;1.80;1.03;;;;;;;;;;4950507;28;20236;-72
2022/06/21 14:43:19;;;;;;;3.23;0.70;;;;;;;;;;4966104;28;20271;-72
2022/06/21 14:45:57;;;;;;;1.63;1.10;;;;;;;;;;4968222;28;33518;-72
2022/06/21 14:48:29;;;;;;;3.23;0.80;;;;;;;;;;4952309;28;20310;-72
2022/06/21 14:51:09;;;;;;;2.37;0.90;;;;;;;;;;4963732;28;20232;-72
2022/06/21 14:53:48;;;;;;;2.00;0.70;;;;;;;;;;4958008;28;20289;-73
2022/06/21 14:56:15;;;;;;;1.30;1.00;;;;;;;;;;4933812;28;20311;-73
2022/06/21 14:58:49;;;;;;;1.17;0.80;;;;;;;;;;4949242;28;20233;-73
2022/06/21 15:01:37;;;;;;;1.30;0.97;;;;;;;;;;4953810;28;20229;-73
2022/06/21 15:04:24;;;;;;;2.17;0.93;;;;;;;;;;4950496;28;20588;-73
2022/06/21 15:07:09;;;;;;;1.50;0.70;;;;;;;;;;4952463;28;20233;-73
2022/06/21 15:09:43;;;;;;;0.87;0.80;;;;;;;;;;4940668;28;20719;-73
2022/06/21 15:12:11;;;;;;;1.50;0.60;;;;;;;;;;4928435;28;20230;-73
2022/06/21 15:14:40;;;;;;;2.77;0.80;;;;;;;;;;4936965;28;20237;-73
2022/06/21 15:17:07;;;;;;;2.77;0.90;;;;;;;;;;4935210;28;20245;-72
2022/06/21 15:19:55;;;;;;;4.30;0.70;;;;;;;;;;4937652;28;20236;-73
2022/06/21 15:22:40;;;;;;;2.30;0.80;;;;;;;;;;4931181;28;20240;-73
2022/06/21 15:25:27;;;;;;;2.03;0.83;;;;;;;;;;4939397;28;20735;-73
2022/06/21 15:27:54;;;;;;;1.47;0.70;;;;;;;;;;4917471;28;20241;-74
2022/06/21 15:30:21;;;;;;;2.57;1.73;;;;;;;;;;4956541;28;20229;-71
2022/06/21 15:32:53;;;;;;;2.97;1.60;;;;;;;;;;4931831;28;44932;-72
2022/06/21 15:35:30;;;;;;;1.77;1.10;;;;;;;;;;4918772;28;318066;-70
2022/06/21 15:38:00;;;;;;;4.47;1.30;;;;;;;;;;4949562;28;21575;-70